Time;durP1;ratioP1;P1;durP2;ratioP2;P2;SDS_P1;SDS_P2;PMS_P1;PMS_P2;Temp;Humidity;BMP_temperature;BMP_pressure;BME280_temperature;BME280_humidity;BME280_pressure;Samples;Min_cycle;Max_cycle;Signal;HPM_P1;HPM_P2
2021/11/08 00:01:33;;;;;;;1.42;1.10;;;;;;;;;;5111682;28;20027;-60
2021/11/08 00:03:59;;;;;;;3.30;1.20;;;;;;;;;;5110995;28;20020;-60
2021/11/08 00:06:25;;;;;;;2.38;0.95;;;;;;;;;;5110846;28;20506;-60
2021/11/08 00:08:51;;;;;;;1.52;0.63;;;;;;;;;;5111969;28;20023;-60
2021/11/08 00:11:17;;;;;;;1.40;0.90;;;;;;;;;;5112247;28;20055;-60
2021/11/08 00:13:44;;;;;;;0.95;0.70;;;;;;;;;;5112179;28;20027;-60
2021/11/08 00:19:04;;;;;;;1.30;1.05;;;;;;;;;;5112893;28;20076;-60
2021/11/08 00:21:33;;;;;;;1.95;1.08;;;;;;;;;;5112294;28;20511;-60
2021/11/08 00:23:59;;;;;;;3.33;1.05;;;;;;;;;;5112139;28;20012;-60
2021/11/08 00:26:26;;;;;;;1.25;0.82;;;;;;;;;;5112256;28;20046;-60
2021/11/08 00:28:52;;;;;;;0.90;0.75;;;;;;;;;;5110503;28;20102;-60
2021/11/08 00:31:18;;;;;;;2.72;0.80;;;;;;;;;;5111313;28;20136;-60
2021/11/08 00:33:44;;;;;;;1.48;0.98;;;;;;;;;;5111062;28;20103;-60
2021/11/08 00:36:11;;;;;;;2.28;0.90;;;;;;;;;;5110763;28;20048;-60
2021/11/08 00:38:37;;;;;;;2.03;1.10;;;;;;;;;;5112046;28;20023;-60
2021/11/08 00:41:04;;;;;;;2.22;1.00;;;;;;;;;;5111298;28;20047;-61
2021/11/08 00:43:30;;;;;;;1.15;0.93;;;;;;;;;;5112182;28;20047;-60
2021/11/08 00:45:56;;;;;;;2.45;1.52;;;;;;;;;;5111310;28;20020;-60
2021/11/08 00:48:25;;;;;;;3.22;1.35;;;;;;;;;;5111999;28;20080;-60
2021/11/08 00:50:53;;;;;;;1.98;0.82;;;;;;;;;;5112102;28;20073;-60
2021/11/08 00:53:19;;;;;;;1.80;1.30;;;;;;;;;;5111761;28;20015;-60
2021/11/08 00:55:46;;;;;;;3.67;1.45;;;;;;;;;;5111973;28;20061;-60
2021/11/08 00:58:46;;;;;;;1.90;1.20;;;;;;;;;;5111371;28;20035;-60
2021/11/08 01:01:07;;;;;;;1.40;1.13;;;;;;;;;;5108424;28;20028;-60
2021/11/08 01:03:35;;;;;;;1.20;0.60;;;;;;;;;;5111978;28;20019;-60
2021/11/08 01:06:02;;;;;;;1.92;0.75;;;;;;;;;;5111415;28;20084;-60
2021/11/08 01:08:28;;;;;;;2.22;1.10;;;;;;;;;;5111901;28;20031;-60
2021/11/08 01:10:58;;;;;;;2.47;1.08;;;;;;;;;;5111077;28;20016;-60
2021/11/08 01:13:24;;;;;;;2.10;1.10;;;;;;;;;;5114045;28;20055;-60
2021/11/08 01:15:51;;;;;;;1.75;0.98;;;;;;;;;;5115506;28;20027;-60
2021/11/08 01:18:18;;;;;;;2.92;1.02;;;;;;;;;;5114864;28;20023;-61
2021/11/08 01:20:49;;;;;;;1.75;0.80;;;;;;;;;;5115430;28;20020;-60
2021/11/08 01:23:17;;;;;;;2.30;1.10;;;;;;;;;;5114368;28;20085;-60
2021/11/08 01:25:45;;;;;;;2.45;1.02;;;;;;;;;;5115130;28;20329;-60
2021/11/08 01:28:11;;;;;;;3.13;1.52;;;;;;;;;;5096270;28;20043;-60
2021/11/08 01:30:38;;;;;;;1.27;0.98;;;;;;;;;;5115269;28;20023;-60
2021/11/08 01:33:07;;;;;;;2.15;1.00;;;;;;;;;;5114168;28;20023;-60
2021/11/08 01:35:45;;;;;;;1.83;0.88;;;;;;;;;;5114854;28;20460;-60
2021/11/08 01:38:21;;;;;;;2.20;1.17;;;;;;;;;;5114211;28;20027;-60
2021/11/08 01:40:48;;;;;;;1.85;0.75;;;;;;;;;;5115258;28;20039;-60
2021/11/08 01:43:14;;;;;;;2.83;1.42;;;;;;;;;;5113852;28;20574;-60
2021/11/08 01:45:41;;;;;;;1.55;0.80;;;;;;;;;;5115128;28;20030;-60
2021/11/08 01:48:07;;;;;;;2.55;0.95;;;;;;;;;;5113764;27;20063;-60
2021/11/08 01:50:34;;;;;;;1.90;1.02;;;;;;;;;;5114036;28;20449;-60
2021/11/08 01:53:00;;;;;;;1.90;1.00;;;;;;;;;;5113787;28;20023;-60
2021/11/08 01:55:27;;;;;;;2.35;0.90;;;;;;;;;;5095591;28;20050;-60
2021/11/08 01:57:53;;;;;;;1.35;0.80;;;;;;;;;;5115230;28;20028;-60
2021/11/08 02:00:20;;;;;;;2.00;0.85;;;;;;;;;;5114582;28;20068;-60
2021/11/08 02:02:47;;;;;;;2.50;1.10;;;;;;;;;;5114953;28;20047;-60
2021/11/08 02:05:13;;;;;;;1.20;0.80;;;;;;;;;;5114241;28;20019;-60
2021/11/08 02:07:39;;;;;;;1.85;0.93;;;;;;;;;;5115191;28;20023;-60
2021/11/08 02:10:06;;;;;;;1.10;0.80;;;;;;;;;;5114015;28;20020;-60
2021/11/08 02:12:32;;;;;;;2.22;0.85;;;;;;;;;;5114584;28;20011;-60
2021/11/08 02:14:59;;;;;;;1.92;0.75;;;;;;;;;;5114345;28;20421;-60
2021/11/08 02:17:26;;;;;;;3.10;1.13;;;;;;;;;;5114701;28;20084;-60
2021/11/08 02:19:55;;;;;;;1.50;1.08;;;;;;;;;;5114812;28;20026;-60
2021/11/08 02:22:22;;;;;;;1.17;0.80;;;;;;;;;;5114538;28;20039;-60
2021/11/08 02:24:48;;;;;;;2.42;1.35;;;;;;;;;;5113751;28;20369;-60
2021/11/08 02:27:14;;;;;;;2.70;0.82;;;;;;;;;;5113416;28;20435;-60
2021/11/08 02:29:42;;;;;;;2.45;0.90;;;;;;;;;;5114501;28;20024;-60
2021/11/08 02:32:08;;;;;;;1.77;1.00;;;;;;;;;;5114003;28;20421;-60
2021/11/08 02:34:34;;;;;;;2.70;0.90;;;;;;;;;;5114505;28;20097;-60
2021/11/08 02:37:00;;;;;;;1.92;0.90;;;;;;;;;;5113307;28;20039;-60
2021/11/08 02:39:38;;;;;;;1.63;0.90;;;;;;;;;;5114155;28;20023;-60
2021/11/08 02:42:05;;;;;;;1.65;1.10;;;;;;;;;;5113828;28;20436;-60
2021/11/08 02:44:31;;;;;;;1.25;0.80;;;;;;;;;;5114102;28;20090;-60
2021/11/08 02:46:57;;;;;;;1.42;0.90;;;;;;;;;;5113645;28;20022;-60
2021/11/08 02:49:29;;;;;;;2.15;1.00;;;;;;;;;;5113999;28;20130;-60
2021/11/08 02:52:18;;;;;;;2.33;1.00;;;;;;;;;;5113733;28;20428;-60
2021/11/08 02:54:47;;;;;;;1.77;0.98;;;;;;;;;;5113961;28;20046;-60
2021/11/08 02:57:13;;;;;;;1.80;0.85;;;;;;;;;;5113737;28;20015;-60
2021/11/08 02:59:39;;;;;;;3.08;1.30;;;;;;;;;;5113791;28;20019;-60
2021/11/08 03:02:06;;;;;;;1.88;0.77;;;;;;;;;;5113365;28;20053;-60
2021/11/08 03:04:37;;;;;;;2.83;1.08;;;;;;;;;;5113793;28;20031;-60
2021/11/08 03:07:03;;;;;;;2.90;1.08;;;;;;;;;;5113345;28;20344;-60
2021/11/08 03:09:35;;;;;;;2.88;1.02;;;;;;;;;;5113398;28;20020;-60
2021/11/08 03:12:07;;;;;;;2.17;0.90;;;;;;;;;;5113202;28;20039;-60
2021/11/08 03:14:34;;;;;;;5.03;1.98;;;;;;;;;;5113664;28;20245;-60
2021/11/08 03:17:02;;;;;;;2.83;1.10;;;;;;;;;;5113058;28;20027;-60
2021/11/08 03:19:34;;;;;;;1.35;1.05;;;;;;;;;;5113774;28;20366;-60
2021/11/08 03:22:01;;;;;;;2.58;1.00;;;;;;;;;;5120064;27;20022;-60
2021/11/08 03:27:18;;;;;;;1.77;1.00;;;;;;;;;;5133593;27;20031;-60
2021/11/08 03:29:45;;;;;;;1.20;0.90;;;;;;;;;;5134130;27;20035;-60
2021/11/08 03:32:14;;;;;;;1.77;0.90;;;;;;;;;;5133427;27;20091;-60
2021/11/08 03:34:47;;;;;;;1.70;0.80;;;;;;;;;;5115430;27;20019;-60
2021/11/08 03:37:13;;;;;;;3.47;1.25;;;;;;;;;;5092428;28;20031;-60
2021/11/08 03:39:40;;;;;;;2.55;1.35;;;;;;;;;;5092841;28;20020;-60
2021/11/08 03:42:06;;;;;;;2.20;1.13;;;;;;;;;;5092301;28;20108;-60
2021/11/08 03:44:33;;;;;;;2.50;0.80;;;;;;;;;;5092784;28;20024;-60
2021/11/08 03:46:59;;;;;;;2.95;1.10;;;;;;;;;;5092184;28;20357;-60
2021/11/08 03:49:25;;;;;;;3.35;1.15;;;;;;;;;;5092658;28;20107;-60
2021/11/08 03:51:51;;;;;;;2.00;1.00;;;;;;;;;;5092776;28;20107;-60
2021/11/08 03:54:17;;;;;;;2.05;1.10;;;;;;;;;;5091696;28;20090;-60
2021/11/08 03:56:43;;;;;;;2.58;1.00;;;;;;;;;;5092255;28;20020;-60
2021/11/08 03:59:09;;;;;;;3.05;1.13;;;;;;;;;;5091993;28;20031;-60
2021/11/08 04:01:36;;;;;;;1.88;0.82;;;;;;;;;;5092839;28;20024;-60
2021/11/08 04:04:05;;;;;;;1.65;0.75;;;;;;;;;;5092021;28;20368;-60
2021/11/08 04:06:32;;;;;;;1.25;0.95;;;;;;;;;;5092589;28;20037;-60
2021/11/08 04:08:59;;;;;;;1.75;0.80;;;;;;;;;;5091888;28;20103;-60
2021/11/08 04:11:27;;;;;;;2.40;1.10;;;;;;;;;;5092484;28;20161;-60
2021/11/08 04:13:56;;;;;;;3.70;1.27;;;;;;;;;;5092443;28;20016;-60
2021/11/08 04:16:22;;;;;;;1.77;0.90;;;;;;;;;;5092438;28;20012;-60
2021/11/08 04:18:52;;;;;;;1.52;0.73;;;;;;;;;;5092110;28;20461;-60
2021/11/08 04:21:19;;;;;;;2.20;1.48;;;;;;;;;;5090834;28;20103;-60
2021/11/08 04:23:45;;;;;;;3.45;1.50;;;;;;;;;;5072291;28;20111;-60
2021/11/08 04:26:17;;;;;;;1.88;0.93;;;;;;;;;;5071837;28;20035;-61
2021/11/08 04:28:51;;;;;;;1.45;0.98;;;;;;;;;;5072132;28;20457;-60
2021/11/08 04:31:17;;;;;;;3.60;1.80;;;;;;;;;;5071658;28;20499;-60
2021/11/08 04:33:48;;;;;;;3.10;1.00;;;;;;;;;;5072280;28;20019;-60
2021/11/08 04:54:17;;;;;;;2.15;1.00;;;;;;;;;;5115975;28;20032;-61
2021/11/08 05:31:56;;;;;;;5.18;2.10;;;;;;;;;;5135884;27;20038;-60
2021/11/08 05:34:22;;;;;;;1.70;0.90;;;;;;;;;;5135704;27;20027;-60
2021/11/08 05:36:48;;;;;;;1.92;0.80;;;;;;;;;;5125876;27;20039;-60
2021/11/08 05:39:15;;;;;;;1.63;0.98;;;;;;;;;;5123414;27;20047;-61
2021/11/08 05:41:42;;;;;;;2.88;1.08;;;;;;;;;;5123957;27;20016;-60
2021/11/08 05:44:08;;;;;;;1.75;1.20;;;;;;;;;;5124751;27;20054;-61
2021/11/08 05:46:35;;;;;;;2.45;1.27;;;;;;;;;;5123715;27;20007;-60
2021/11/08 05:49:02;;;;;;;2.92;1.25;;;;;;;;;;5122999;27;20513;-60
2021/11/08 05:51:28;;;;;;;2.85;0.90;;;;;;;;;;5125174;27;20018;-61
2021/11/08 05:53:54;;;;;;;2.30;1.27;;;;;;;;;;5123282;27;20086;-60
2021/11/08 06:50:30;;;;;;;3.25;1.00;;;;;;;;;;5134190;27;20103;-59
2021/11/08 06:53:05;;;;;;;6.63;1.45;;;;;;;;;;5134047;27;20027;-60
2021/11/08 06:55:32;;;;;;;6.00;1.40;;;;;;;;;;5134662;27;20050;-61
2021/11/08 06:58:04;;;;;;;3.97;1.42;;;;;;;;;;5134511;27;20035;-59
2021/11/08 07:00:30;;;;;;;3.45;1.02;;;;;;;;;;5133812;27;20328;-60
2021/11/08 07:02:56;;;;;;;3.88;1.52;;;;;;;;;;5133795;27;20026;-60
2021/11/08 07:05:22;;;;;;;5.40;1.52;;;;;;;;;;5133096;27;20011;-60
2021/11/08 07:07:48;;;;;;;4.32;1.58;;;;;;;;;;5115511;27;20075;-59
2021/11/08 07:10:20;;;;;;;4.15;1.10;;;;;;;;;;5133141;27;20020;-60
2021/11/08 07:12:46;;;;;;;4.78;1.13;;;;;;;;;;5133889;27;20068;-60
2021/11/08 07:15:12;;;;;;;2.30;1.08;;;;;;;;;;5132759;27;20055;-60
2021/11/08 07:17:38;;;;;;;6.03;2.70;;;;;;;;;;5133460;27;20352;-62
2021/11/08 07:20:06;;;;;;;9.82;2.40;;;;;;;;;;5133008;27;20019;-60
2021/11/08 07:22:32;;;;;;;8.38;3.25;;;;;;;;;;5133286;27;20480;-59
2021/11/08 07:25:00;;;;;;;10.82;3.63;;;;;;;;;;5133596;27;20024;-59
2021/11/08 07:27:26;;;;;;;14.73;3.42;;;;;;;;;;5132585;27;20023;-59
2021/11/08 07:29:52;;;;;;;7.80;3.13;;;;;;;;;;5133587;27;20097;-58
2021/11/08 07:32:19;;;;;;;9.32;3.25;;;;;;;;;;5132467;27;20019;-59
2021/11/08 07:34:45;;;;;;;6.32;2.90;;;;;;;;;;5133674;27;20135;-60
2021/11/08 07:37:11;;;;;;;7.93;2.85;;;;;;;;;;5132817;27;20088;-59
2021/11/08 07:39:37;;;;;;;6.60;2.20;;;;;;;;;;5133855;27;20019;-59
2021/11/08 07:42:03;;;;;;;4.63;1.98;;;;;;;;;;5133442;27;20506;-59
2021/11/08 07:44:29;;;;;;;5.47;2.25;;;;;;;;;;5109389;27;20442;-59
2021/11/08 07:46:55;;;;;;;6.05;2.20;;;;;;;;;;5112697;28;20015;-59
2021/11/08 07:49:21;;;;;;;7.40;2.63;;;;;;;;;;5111818;28;20471;-59
2021/11/08 07:51:49;;;;;;;4.45;1.95;;;;;;;;;;5094423;28;20448;-59
2021/11/08 07:54:15;;;;;;;7.38;2.28;;;;;;;;;;5111796;28;20051;-59
2021/11/08 07:56:42;;;;;;;10.00;2.03;;;;;;;;;;5111832;28;20036;-59
2021/11/08 07:59:08;;;;;;;4.35;2.30;;;;;;;;;;5111831;28;20030;-59
2021/11/08 08:01:34;;;;;;;5.03;2.08;;;;;;;;;;5112558;28;20779;-59
2021/11/08 08:04:00;;;;;;;4.65;2.20;;;;;;;;;;5112241;28;20479;-59
2021/11/08 08:06:27;;;;;;;4.05;2.33;;;;;;;;;;5111544;28;20019;-59
2021/11/08 08:08:53;;;;;;;5.45;2.20;;;;;;;;;;5112361;28;20034;-59
2021/11/08 08:11:20;;;;;;;6.25;1.50;;;;;;;;;;5110378;28;20453;-59
2021/11/08 08:13:46;;;;;;;6.10;2.35;;;;;;;;;;5111802;28;20051;-59
2021/11/08 08:16:16;;;;;;;5.50;2.10;;;;;;;;;;5111604;28;20019;-59
2021/11/08 08:18:43;;;;;;;4.63;2.22;;;;;;;;;;5111873;28;20456;-59
2021/11/08 08:21:10;;;;;;;5.50;2.05;;;;;;;;;;5111605;28;20024;-59
2021/11/08 08:23:36;;;;;;;4.75;2.28;;;;;;;;;;5135809;27;20011;-59
2021/11/08 08:26:02;;;;;;;4.88;1.92;;;;;;;;;;5136729;27;20102;-59
2021/11/08 08:28:28;;;;;;;4.97;1.55;;;;;;;;;;5136131;27;20034;-59
2021/11/08 08:30:55;;;;;;;3.95;2.10;;;;;;;;;;5137062;27;20023;-59
2021/11/08 08:33:21;;;;;;;4.78;2.20;;;;;;;;;;5134830;27;20489;-59
2021/11/08 08:35:47;;;;;;;4.68;2.22;;;;;;;;;;5136627;27;20043;-59
2021/11/08 08:38:17;;;;;;;4.57;2.15;;;;;;;;;;5136027;27;20059;-59
2021/11/08 08:40:43;;;;;;;4.13;1.98;;;;;;;;;;5136469;27;20474;-59
2021/11/08 08:43:10;;;;;;;4.60;1.83;;;;;;;;;;5131465;27;20043;-59
2021/11/08 08:45:36;;;;;;;5.18;2.17;;;;;;;;;;5136350;27;20467;-59
2021/11/08 08:48:03;;;;;;;4.10;1.92;;;;;;;;;;5135805;27;20068;-59
2021/11/08 08:50:29;;;;;;;3.88;2.17;;;;;;;;;;5135927;27;20023;-59
2021/11/08 08:52:55;;;;;;;4.43;1.88;;;;;;;;;;5134331;27;20015;-59
2021/11/08 08:55:22;;;;;;;4.72;1.55;;;;;;;;;;5135415;27;20468;-59
2021/11/08 08:57:48;;;;;;;4.20;2.15;;;;;;;;;;5115831;28;20111;-59
2021/11/08 09:00:15;;;;;;;5.25;1.85;;;;;;;;;;5115017;28;20020;-59
2021/11/08 09:02:42;;;;;;;4.03;2.33;;;;;;;;;;5115645;28;20019;-59
2021/11/08 09:05:09;;;;;;;5.90;1.80;;;;;;;;;;5114870;28;20019;-59
2021/11/08 09:07:46;;;;;;;6.40;2.15;;;;;;;;;;5113826;27;20015;-59
2021/11/08 09:10:12;;;;;;;5.45;2.13;;;;;;;;;;5119712;27;20016;-59
2021/11/08 09:12:39;;;;;;;3.20;1.90;;;;;;;;;;5116700;27;20061;-59
2021/11/08 09:15:08;;;;;;;3.33;1.85;;;;;;;;;;5136123;27;20064;-59
2021/11/08 09:17:34;;;;;;;6.75;2.25;;;;;;;;;;5135637;27;20027;-59
2021/11/08 09:20:00;;;;;;;3.90;1.70;;;;;;;;;;5130728;27;20027;-59
2021/11/08 09:22:27;;;;;;;4.57;2.22;;;;;;;;;;5132303;27;20024;-59
2021/11/08 09:24:53;;;;;;;4.28;2.33;;;;;;;;;;5135882;27;20034;-59
2021/11/08 09:27:19;;;;;;;3.90;1.52;;;;;;;;;;5114909;27;20043;-59
2021/11/08 09:29:45;;;;;;;6.32;2.22;;;;;;;;;;5114895;28;20034;-59
2021/11/08 09:32:11;;;;;;;4.72;2.03;;;;;;;;;;5114435;28;20030;-59
2021/11/08 09:34:45;;;;;;;4.75;1.83;;;;;;;;;;5114686;28;20020;-59
2021/11/08 09:37:14;;;;;;;5.00;1.67;;;;;;;;;;5114282;28;20047;-59
2021/11/08 09:39:40;;;;;;;2.85;1.70;;;;;;;;;;5114903;28;20027;-59
2021/11/08 09:42:08;;;;;;;4.22;2.17;;;;;;;;;;5122434;27;20098;-59
2021/11/08 09:44:35;;;;;;;6.13;2.30;;;;;;;;;;5096105;28;20102;-59
2021/11/08 09:47:01;;;;;;;5.13;1.90;;;;;;;;;;5114891;28;20011;-59
2021/11/08 09:49:28;;;;;;;3.83;1.98;;;;;;;;;;5114155;27;20046;-59
2021/11/08 09:51:54;;;;;;;5.45;2.50;;;;;;;;;;5114759;28;20023;-59
2021/11/08 09:54:21;;;;;;;5.05;2.53;;;;;;;;;;5113585;28;20019;-59
2021/11/08 09:56:48;;;;;;;6.75;2.88;;;;;;;;;;5114484;28;20035;-59
2021/11/08 09:59:15;;;;;;;4.18;1.77;;;;;;;;;;5113811;28;20031;-59
2021/11/08 10:01:44;;;;;;;4.05;1.88;;;;;;;;;;5114546;28;20110;-59
2021/11/08 10:04:13;;;;;;;3.38;1.45;;;;;;;;;;5118946;27;20011;-59
2021/11/08 10:06:40;;;;;;;5.53;2.10;;;;;;;;;;5133192;27;20113;-59
2021/11/08 10:09:07;;;;;;;3.50;2.00;;;;;;;;;;5131607;27;20028;-59
2021/11/08 10:11:35;;;;;;;4.35;1.80;;;;;;;;;;5095352;28;20026;-59
2021/11/08 10:14:01;;;;;;;5.35;2.65;;;;;;;;;;5119956;27;20101;-59
2021/11/08 10:16:29;;;;;;;6.20;2.33;;;;;;;;;;5120517;27;20043;-59
2021/11/08 10:18:56;;;;;;;3.28;1.48;;;;;;;;;;5115310;27;20041;-59
2021/11/08 10:21:30;;;;;;;3.85;1.83;;;;;;;;;;5129104;27;20527;-59
2021/11/08 10:23:57;;;;;;;5.28;1.80;;;;;;;;;;5120891;27;20024;-59
2021/11/08 10:26:25;;;;;;;3.88;1.88;;;;;;;;;;5113511;27;20023;-59
2021/11/08 10:28:53;;;;;;;3.85;1.70;;;;;;;;;;5127625;27;20038;-59
2021/11/08 10:31:20;;;;;;;5.82;1.98;;;;;;;;;;5128546;27;20022;-59
2021/11/08 10:33:46;;;;;;;6.22;1.92;;;;;;;;;;5114619;27;20047;-60
2021/11/08 10:36:14;;;;;;;2.28;1.52;;;;;;;;;;5131710;27;20040;-59
2021/11/08 10:38:41;;;;;;;5.68;1.73;;;;;;;;;;5114607;27;20356;-59
2021/11/08 10:41:26;;;;;;;4.38;1.90;;;;;;;;;;5129470;27;20007;-59
2021/11/08 10:43:53;;;;;;;4.45;1.60;;;;;;;;;;5112597;27;20027;-59
2021/11/08 10:46:21;;;;;;;3.50;2.00;;;;;;;;;;5119504;27;20015;-59
2021/11/08 10:48:49;;;;;;;4.40;2.05;;;;;;;;;;5113589;28;20123;-60
2021/11/08 10:51:16;;;;;;;3.40;1.95;;;;;;;;;;5129584;27;20043;-59
2021/11/08 10:53:44;;;;;;;3.80;1.45;;;;;;;;;;5133835;27;20460;-59
2021/11/08 10:56:11;;;;;;;4.95;1.75;;;;;;;;;;5116123;27;20081;-60
2021/11/08 10:58:47;;;;;;;4.75;1.60;;;;;;;;;;5125448;27;20023;-59
2021/11/08 11:01:24;;;;;;;3.47;2.00;;;;;;;;;;5128178;27;20098;-59
2021/11/08 11:03:54;;;;;;;3.17;1.77;;;;;;;;;;5124100;27;20353;-59
2021/11/08 11:06:21;;;;;;;4.82;1.52;;;;;;;;;;5125456;27;20043;-59
2021/11/08 11:08:49;;;;;;;4.93;1.90;;;;;;;;;;5113369;28;20035;-60
2021/11/08 11:11:17;;;;;;;3.35;1.80;;;;;;;;;;5112347;28;20338;-59
2021/11/08 11:13:49;;;;;;;6.03;1.65;;;;;;;;;;5122635;27;20451;-59
2021/11/08 11:16:15;;;;;;;4.00;1.75;;;;;;;;;;5118330;27;20020;-59
2021/11/08 11:18:41;;;;;;;2.83;1.70;;;;;;;;;;5122916;27;20429;-59
2021/11/08 11:21:12;;;;;;;3.00;1.38;;;;;;;;;;5128113;27;20420;-59
2021/11/08 11:23:43;;;;;;;3.70;1.42;;;;;;;;;;5130620;27;20019;-59
2021/11/08 11:26:11;;;;;;;3.92;1.58;;;;;;;;;;5119693;27;20038;-59
2021/11/08 11:28:40;;;;;;;2.83;1.60;;;;;;;;;;5112188;28;20035;-59
2021/11/08 11:31:19;;;;;;;4.78;2.13;;;;;;;;;;5112800;28;20016;-59
2021/11/08 11:33:46;;;;;;;3.47;1.50;;;;;;;;;;5122561;27;20018;-59
2021/11/08 11:36:19;;;;;;;3.47;1.40;;;;;;;;;;5120470;27;20119;-59
2021/11/08 11:38:48;;;;;;;4.35;1.85;;;;;;;;;;5113760;28;20104;-59
2021/11/08 11:41:22;;;;;;;3.60;1.50;;;;;;;;;;5111948;28;20061;-59
2021/11/08 11:43:49;;;;;;;4.38;1.70;;;;;;;;;;5124186;27;20099;-59
2021/11/08 11:46:24;;;;;;;2.97;1.50;;;;;;;;;;5131434;27;20143;-59
2021/11/08 11:48:54;;;;;;;4.25;1.60;;;;;;;;;;5120910;27;20043;-59
2021/11/08 11:51:22;;;;;;;3.70;1.50;;;;;;;;;;5116905;27;20026;-59
2021/11/08 11:53:48;;;;;;;3.70;1.88;;;;;;;;;;5132588;27;20055;-59
2021/11/08 11:56:21;;;;;;;4.40;1.98;;;;;;;;;;5112796;28;20028;-59
2021/11/08 11:58:48;;;;;;;4.30;1.50;;;;;;;;;;5113911;28;20032;-59
2021/11/08 12:01:22;;;;;;;4.72;2.30;;;;;;;;;;5131282;27;20023;-59
2021/11/08 12:03:49;;;;;;;3.28;1.80;;;;;;;;;;5121817;27;20364;-59
2021/11/08 12:06:22;;;;;;;5.47;1.85;;;;;;;;;;5115993;28;20367;-59
2021/11/08 12:08:52;;;;;;;4.50;1.60;;;;;;;;;;5128671;28;20031;-59
2021/11/08 12:11:26;;;;;;;2.85;1.27;;;;;;;;;;5125878;28;20019;-60
2021/11/08 12:13:56;;;;;;;5.13;1.73;;;;;;;;;;5118313;28;20019;-59
2021/11/08 12:16:28;;;;;;;2.97;1.52;;;;;;;;;;5129856;28;20463;-59
2021/11/08 12:18:55;;;;;;;3.38;1.30;;;;;;;;;;5120029;28;20027;-59
2021/11/08 12:21:24;;;;;;;2.15;1.23;;;;;;;;;;5130322;28;20038;-59
2021/11/08 12:23:51;;;;;;;2.67;1.52;;;;;;;;;;5113001;28;20047;-59
2021/11/08 12:26:19;;;;;;;3.65;1.63;;;;;;;;;;5119828;28;20023;-59
2021/11/08 12:28:47;;;;;;;4.45;1.67;;;;;;;;;;5114375;28;20069;-59
2021/11/08 12:31:19;;;;;;;4.35;1.65;;;;;;;;;;5132104;28;20372;-59
2021/11/08 12:33:57;;;;;;;3.03;1.35;;;;;;;;;;5132506;28;20498;-59
2021/11/08 12:36:23;;;;;;;3.05;1.33;;;;;;;;;;5127825;28;20475;-59
2021/11/08 12:39:21;;;;;;;1.73;0.95;;;;;;;;;;5121798;28;20019;-60
2021/11/08 12:41:48;;;;;;;2.58;1.38;;;;;;;;;;5064905;28;20040;-59
2021/11/08 12:44:16;;;;;;;3.67;1.33;;;;;;;;;;5111369;28;20020;-59
2021/11/08 12:46:53;;;;;;;5.13;1.90;;;;;;;;;;5132159;28;20080;-59
2021/11/08 12:49:22;;;;;;;4.38;1.42;;;;;;;;;;5129748;28;20039;-60
2021/11/08 12:51:53;;;;;;;3.13;1.42;;;;;;;;;;5121288;28;20020;-60
2021/11/08 12:54:19;;;;;;;3.15;1.83;;;;;;;;;;5114956;28;20023;-60
2021/11/08 12:56:46;;;;;;;7.28;1.65;;;;;;;;;;5132481;28;20035;-60
2021/11/08 12:59:14;;;;;;;8.00;2.00;;;;;;;;;;5131969;28;20096;-59
2021/11/08 13:01:46;;;;;;;4.35;1.55;;;;;;;;;;5131201;28;20106;-60
2021/11/08 13:04:14;;;;;;;3.95;1.60;;;;;;;;;;5121230;28;20368;-60
2021/11/08 13:06:41;;;;;;;3.75;1.52;;;;;;;;;;5129264;28;20046;-60
2021/11/08 13:09:09;;;;;;;3.47;1.17;;;;;;;;;;5132165;27;20115;-59
2021/11/08 13:11:41;;;;;;;5.72;1.88;;;;;;;;;;5115175;27;20030;-60
2021/11/08 13:14:07;;;;;;;2.22;1.20;;;;;;;;;;5116103;27;20015;-59
2021/11/08 13:16:35;;;;;;;3.20;1.40;;;;;;;;;;5114782;28;20011;-60
2021/11/08 13:19:06;;;;;;;4.65;1.25;;;;;;;;;;5115464;27;20145;-60
2021/11/08 13:21:32;;;;;;;3.53;1.40;;;;;;;;;;5117925;27;20026;-60
2021/11/08 13:23:58;;;;;;;4.95;1.52;;;;;;;;;;5116113;27;20016;-59
2021/11/08 13:26:25;;;;;;;5.07;1.60;;;;;;;;;;5118241;27;20127;-59
2021/11/08 13:28:51;;;;;;;3.63;1.80;;;;;;;;;;5117149;27;20042;-60
2021/11/08 13:31:24;;;;;;;2.80;1.40;;;;;;;;;;5115796;27;20440;-60
2021/11/08 13:33:52;;;;;;;5.15;2.15;;;;;;;;;;5121988;27;20015;-59
2021/11/08 13:36:24;;;;;;;3.50;1.40;;;;;;;;;;5133398;27;20043;-59
2021/11/08 13:38:54;;;;;;;5.30;1.77;;;;;;;;;;5135301;27;20476;-60
2021/11/08 13:41:23;;;;;;;3.97;1.48;;;;;;;;;;5117832;27;20027;-60
2021/11/08 13:43:51;;;;;;;3.83;1.83;;;;;;;;;;5131232;27;20046;-59
2021/11/08 13:46:21;;;;;;;3.05;1.58;;;;;;;;;;5134823;27;20500;-59
2021/11/08 13:48:51;;;;;;;3.17;1.50;;;;;;;;;;5129772;27;20166;-60
2021/11/08 13:51:25;;;;;;;4.50;1.52;;;;;;;;;;5115842;27;20023;-60
2021/11/08 13:53:53;;;;;;;4.30;1.38;;;;;;;;;;5120331;27;20034;-60
2021/11/08 13:56:22;;;;;;;3.70;1.38;;;;;;;;;;5108633;27;20379;-60
2021/11/08 13:58:51;;;;;;;4.40;1.88;;;;;;;;;;5113846;28;20114;-60
2021/11/08 14:01:20;;;;;;;4.35;1.65;;;;;;;;;;5114607;28;20024;-59
2021/11/08 14:03:48;;;;;;;4.45;1.55;;;;;;;;;;5116431;27;20030;-60
2021/11/08 14:06:14;;;;;;;6.97;1.73;;;;;;;;;;5115620;27;20015;-60
2021/11/08 14:08:50;;;;;;;2.80;1.30;;;;;;;;;;5111618;28;20076;-60
2021/11/08 14:11:27;;;;;;;3.70;1.38;;;;;;;;;;5133701;27;20019;-60
2021/11/08 14:13:53;;;;;;;3.92;1.50;;;;;;;;;;5120768;27;20020;-60
2021/11/08 14:16:25;;;;;;;2.80;1.50;;;;;;;;;;5117758;27;20503;-59
2021/11/08 14:18:54;;;;;;;4.72;1.42;;;;;;;;;;5114076;28;20465;-60
2021/11/08 14:21:23;;;;;;;3.08;1.50;;;;;;;;;;5129353;27;20022;-60
2021/11/08 14:23:55;;;;;;;3.90;1.35;;;;;;;;;;5133511;27;20037;-60
2021/11/08 14:26:24;;;;;;;3.75;1.40;;;;;;;;;;5115308;27;20035;-60
2021/11/08 14:28:51;;;;;;;3.50;1.50;;;;;;;;;;5132256;27;20023;-59
2021/11/08 14:31:28;;;;;;;2.83;1.52;;;;;;;;;;5116653;27;20028;-59
2021/11/08 14:33:58;;;;;;;5.60;1.58;;;;;;;;;;5134392;27;20023;-59
2021/11/08 14:36:26;;;;;;;3.45;1.63;;;;;;;;;;5133309;27;20430;-60
2021/11/08 14:38:58;;;;;;;3.53;1.50;;;;;;;;;;5134337;27;20073;-60
2021/11/08 14:41:32;;;;;;;5.18;1.23;;;;;;;;;;5131848;27;20051;-60
2021/11/08 14:43:59;;;;;;;3.40;1.60;;;;;;;;;;5122134;27;20644;-60
2021/11/08 14:46:49;;;;;;;3.35;1.25;;;;;;;;;;5122588;27;20023;-60
2021/11/08 14:49:31;;;;;;;2.08;1.38;;;;;;;;;;5113830;27;20023;-59
2021/11/08 14:51:59;;;;;;;3.25;1.00;;;;;;;;;;5113732;27;20039;-59
2021/11/08 14:54:28;;;;;;;4.03;1.52;;;;;;;;;;5129179;27;20019;-59
2021/11/08 14:56:55;;;;;;;3.17;1.50;;;;;;;;;;5124331;27;20019;-60
2021/11/08 14:59:51;;;;;;;2.50;1.23;;;;;;;;;;5114931;27;20088;-60
2021/11/08 15:02:17;;;;;;;5.43;1.55;;;;;;;;;;5095573;28;20031;-59
2021/11/08 15:04:45;;;;;;;6.53;1.83;;;;;;;;;;5128808;27;20221;-59
2021/11/08 15:07:11;;;;;;;5.82;1.60;;;;;;;;;;5132131;27;20022;-59
2021/11/08 15:09:41;;;;;;;9.95;2.03;;;;;;;;;;5116965;27;20468;-59
2021/11/08 15:12:22;;;;;;;9.27;1.50;;;;;;;;;;5129247;27;20028;-59
2021/11/08 15:15:00;;;;;;;6.18;1.70;;;;;;;;;;5116544;27;20093;-59
2021/11/08 15:17:34;;;;;;;5.93;1.33;;;;;;;;;;5131228;27;20015;-59
2021/11/08 15:20:07;;;;;;;3.38;1.08;;;;;;;;;;5115349;27;20096;-59
2021/11/08 15:22:33;;;;;;;6.40;1.40;;;;;;;;;;5117191;27;20031;-59
2021/11/08 15:25:09;;;;;;;4.72;1.50;;;;;;;;;;5112560;28;20029;-59
2021/11/08 15:27:36;;;;;;;2.35;1.02;;;;;;;;;;5124366;27;20031;-59
2021/11/08 15:30:04;;;;;;;4.25;1.88;;;;;;;;;;5097331;27;20600;-59
2021/11/08 15:32:30;;;;;;;5.18;1.60;;;;;;;;;;5112432;27;20012;-59
2021/11/08 15:35:06;;;;;;;3.20;1.50;;;;;;;;;;5128825;27;20015;-58
2021/11/08 15:37:52;;;;;;;3.97;1.55;;;;;;;;;;5130997;27;20052;-59
2021/11/08 15:40:20;;;;;;;2.80;1.10;;;;;;;;;;5129102;27;20095;-59
2021/11/08 15:42:46;;;;;;;2.97;1.05;;;;;;;;;;5111181;27;20043;-59
2021/11/08 15:45:12;;;;;;;4.53;1.20;;;;;;;;;;5130960;27;20464;-59
2021/11/08 15:47:39;;;;;;;2.97;1.38;;;;;;;;;;5116353;27;20015;-59
2021/11/08 15:50:05;;;;;;;4.18;1.55;;;;;;;;;;5132706;27;20079;-59
2021/11/08 15:52:37;;;;;;;2.85;1.73;;;;;;;;;;5117875;27;20371;-59
2021/11/08 15:55:03;;;;;;;2.83;1.42;;;;;;;;;;5094789;28;20015;-59
2021/11/08 15:57:29;;;;;;;1.92;1.08;;;;;;;;;;5128723;27;20376;-59
2021/11/08 15:59:55;;;;;;;5.00;1.40;;;;;;;;;;5127023;27;20030;-59
2021/11/08 16:02:21;;;;;;;4.13;1.63;;;;;;;;;;5132670;27;20605;-59
2021/11/08 16:04:49;;;;;;;5.28;2.10;;;;;;;;;;5131811;27;20023;-59
2021/11/08 16:07:15;;;;;;;4.07;1.45;;;;;;;;;;5131052;27;20372;-59
2021/11/08 16:09:41;;;;;;;2.20;1.27;;;;;;;;;;5131045;27;20038;-59
2021/11/08 16:12:08;;;;;;;3.08;1.30;;;;;;;;;;5132357;27;20019;-59
2021/11/08 16:14:41;;;;;;;3.67;1.60;;;;;;;;;;5122684;28;20019;-59
2021/11/08 16:17:07;;;;;;;3.30;1.38;;;;;;;;;;5117231;28;20496;-59
2021/11/08 16:19:33;;;;;;;3.55;1.73;;;;;;;;;;5111601;28;20024;-59
2021/11/08 16:21:59;;;;;;;2.03;1.35;;;;;;;;;;5113438;28;20046;-59
2021/11/08 16:24:25;;;;;;;3.25;1.80;;;;;;;;;;5123443;28;20460;-59
2021/11/08 16:26:51;;;;;;;2.85;1.38;;;;;;;;;;5109993;28;20122;-59
2021/11/08 16:29:21;;;;;;;4.82;1.65;;;;;;;;;;5111581;28;20147;-59
2021/11/08 16:32:03;;;;;;;2.45;1.60;;;;;;;;;;5110504;28;20059;-59
2021/11/08 16:34:29;;;;;;;;;;;;;;;;;;5111914;28;20461;-59
2021/11/08 16:36:55;;;;;;;3.42;1.52;;;;;;;;;;5129401;28;19915;-59
2021/11/08 16:39:24;;;;;;;4.68;1.42;;;;;;;;;;5131931;28;20516;-59
2021/11/08 16:41:52;;;;;;;4.95;1.58;;;;;;;;;;5114522;28;20023;-59
2021/11/08 16:44:25;;;;;;;2.22;1.25;;;;;;;;;;5127962;27;20026;-59